Currently 66°F in Murrieta, California, USA
66°F
66°F / 46°F
calm
0.00"
Friday, April 16, 2021 10:27 AM PDT

Murrieta, California Weather Summary
Last 36 Hours

Temperature Winds Hourly Humidity Dewpoint
Time Report Norm Report Norm Max Gusts Precip. Rpt. Norm Rpt. Norm Pressure
1Fri 10:27 AM  66.2°F  66°F  calm  4 mph  none  0.00"  N/A  56%  N/A°F  49°F  N/A
2Fri 10:25 AM  66.2°F  66°F  calm  4 mph  none  ----  N/A  56%  N/A°F  49°F  N/A
Fri 10:00 AM  63.5°F  64°F  calm  3 mph  none  0.00"  66%  60%  52°F  50°F  N/A
Fri 09:00 AM  57.2°F  59°F  calm  2 mph  none  0.00"  79%  73%  50°F  50°F  N/A
Fri 08:00 AM  51.7°F  54°F  calm  2 mph  none  0.00"  93%  82%  50°F  48°F  N/A
Fri 07:00 AM  46.1°F  50°F  calm  1 mph  none  0.00"  96%  88%  45°F  46°F  N/A
3Fri 06:45 AM  45.7°F  49°F  calm  1 mph  none  ----  96%  88%  44°F  46°F  N/A
Fri 06:00 AM  46.0°F  49°F  calm  1 mph  none  0.00"  95%  88%  45°F  46°F  N/A
Fri 05:00 AM  46.0°F  50°F  calm  1 mph  none  0.00"  95%  87%  45°F  46°F  N/A
Fri 04:00 AM  46.4°F  50°F  calm  1 mph  none  0.00"  95%  86%  45°F  46°F  N/A
Fri 03:00 AM  47.5°F  51°F  calm  1 mph  none  0.00"  95%  85%  46°F  46°F  N/A
Fri 02:00 AM  48.0°F  52°F  calm  2 mph  none  0.00"  95%  84%  47°F  47°F  N/A
Fri 01:00 AM  48.9°F  52°F  calm  2 mph  none  0.00"  94%  83%  47°F  47°F  N/A
Fri 12:00 AM  49.5°F  53°F  calm  2 mph  none  0.00"  93%  82%  48°F  47°F  N/A
Thu 11:00 PM  51.0°F  54°F  calm  2 mph  none  0.00"  92%  80%  49°F  48°F  N/A
Thu 10:00 PM  52.2°F  56°F  calm  3 mph  none  0.00"  91%  77%  50°F  48°F  N/A
Thu 09:00 PM  53.6°F  57°F  calm  4 mph  none  0.00"  87%  74%  50°F  49°F  N/A
Thu 08:00 PM  55.9°F  60°F  calm  5 mph  none  0.00"  81%  69%  50°F  49°F  N/A
Thu 07:00 PM  58.0°F  63°F  calm  6 mph  none  0.00"  75%  62%  50°F  49°F  N/A
Thu 06:00 PM  62.2°F  67°F  calm  7 mph  none  0.00"  55%  55%  45°F  49°F  N/A
Thu 05:00 PM  65.1°F  70°F  calm  7 mph  none  0.00"  60%  48%  50°F  49°F  N/A
Thu 04:00 PM  67.0°F  72°F  calm  8 mph  none  0.00"  57%  45%  51°F  49°F  N/A
Thu 03:00 PM  66.4°F  73°F  calm  7 mph  none  0.00"  56%  43%  50°F  49°F  N/A
Thu 02:00 PM  68.2°F  73°F  calm  6 mph  none  0.00"  50%  43%  48°F  49°F  N/A
Thu 01:00 PM  69.4°F  72°F  calm  5 mph  none  0.00"  45%  44%  46°F  48°F  N/A
Thu 12:00 PM  65.8°F  71°F  calm  5 mph  none  0.00"  50%  46%  46°F  48°F  N/A
Thu 11:00 AM  61.5°F  68°F  calm  4 mph  none  0.00"  57%  52%  46°F  49°F  N/A
Thu 10:00 AM  57.8°F  64°F  calm  3 mph  none  0.00"  66%  61%  46°F  49°F  N/A
Thu 09:00 AM  53.8°F  59°F  calm  2 mph  none  0.00"  75%  73%  46°F  50°F  N/A
Thu 08:00 AM  49.7°F  54°F  calm  2 mph  none  0.00"  85%  83%  45°F  48°F  N/A
Thu 07:00 AM  43.5°F  49°F  calm  1 mph  none  0.00"  94%  88%  42°F  46°F  N/A
Thu 06:00 AM  42.1°F  49°F  calm  1 mph  none  0.00"  93%  88%  40°F  45°F  N/A
Thu 05:00 AM  43.2°F  49°F  calm  1 mph  none  0.00"  92%  87%  41°F  46°F  N/A
Thu 04:00 AM  44.8°F  50°F  calm  1 mph  none  0.00"  90%  87%  42°F  46°F  N/A
Thu 03:00 AM  46.7°F  51°F  calm  1 mph  none  0.00"  87%  86%  43°F  46°F  N/A
Thu 02:00 AM  46.2°F  51°F  calm  2 mph  none  0.00"  87%  85%  42°F  47°F  N/A
Thu 01:00 AM  44.9°F  52°F  calm  2 mph  none  0.00"  89%  83%  42°F  47°F  N/A
Thu 12:00 AM  45.9°F  53°F  calm  2 mph  none  0.00"  88%  82%  42°F  47°F  N/A
Wed 11:00 PM  46.7°F  54°F  calm  2 mph  none  0.00"  88%  80%  43°F  48°F  N/A

  1. Current weather data. No green row appears if the current weather data is also the high or low for the current day.
  2. High temperature for the current day.
  3. Low temperature for the current day.

The Murrieta weather pages are a service of WeatherCurrents. Murrieta, California is located in the Temecula Valley, in southwestern Riverside County, at the junctions of the Interstate 15 and 215 highways.
Copyright ©2021  WeatherCurrents. All rights reserved. - Submit questions and comments - Privacy Policy

This page automatically refreshes every 10 minutes.